sensor_id;sensor_type;location;lat;lon;timestamp;P1;durP1;ratioP1;P2;durP2;ratioP2
13927;SDS011;7036;50.834;4.718;2023-08-17T00:02:14;3.40;;;2.83;;
13927;SDS011;7036;50.834;4.718;2023-08-17T00:04:42;3.00;;;2.70;;
13927;SDS011;7036;50.834;4.718;2023-08-17T00:07:09;3.90;;;2.70;;
13927;SDS011;7036;50.834;4.718;2023-08-17T00:09:37;4.27;;;3.00;;
13927;SDS011;7036;50.834;4.718;2023-08-17T00:12:03;6.00;;;2.50;;
13927;SDS011;7036;50.834;4.718;2023-08-17T00:14:30;4.03;;;2.57;;
13927;SDS011;7036;50.834;4.718;2023-08-17T00:16:57;3.40;;;2.43;;
13927;SDS011;7036;50.834;4.718;2023-08-17T00:19:24;2.60;;;2.40;;
13927;SDS011;7036;50.834;4.718;2023-08-17T00:21:51;2.70;;;2.50;;
13927;SDS011;7036;50.834;4.718;2023-08-17T00:24:18;2.77;;;2.53;;
13927;SDS011;7036;50.834;4.718;2023-08-17T00:26:46;2.70;;;2.50;;
13927;SDS011;7036;50.834;4.718;2023-08-17T00:29:13;2.50;;;2.30;;
13927;SDS011;7036;50.834;4.718;2023-08-17T00:31:40;3.10;;;2.60;;
13927;SDS011;7036;50.834;4.718;2023-08-17T00:34:07;2.77;;;2.50;;
13927;SDS011;7036;50.834;4.718;2023-08-17T00:36:37;3.10;;;2.60;;
13927;SDS011;7036;50.834;4.718;2023-08-17T00:39:04;2.77;;;2.40;;
13927;SDS011;7036;50.834;4.718;2023-08-17T00:41:31;3.00;;;2.50;;
13927;SDS011;7036;50.834;4.718;2023-08-17T00:43:57;3.00;;;2.70;;
13927;SDS011;7036;50.834;4.718;2023-08-17T00:46:25;3.00;;;2.70;;
13927;SDS011;7036;50.834;4.718;2023-08-17T00:48:51;3.20;;;2.53;;
13927;SDS011;7036;50.834;4.718;2023-08-17T00:51:18;4.67;;;2.60;;
13927;SDS011;7036;50.834;4.718;2023-08-17T00:53:45;2.80;;;2.53;;
13927;SDS011;7036;50.834;4.718;2023-08-17T00:56:12;2.90;;;2.70;;
13927;SDS011;7036;50.834;4.718;2023-08-17T00:58:39;4.17;;;2.40;;
13927;SDS011;7036;50.834;4.718;2023-08-17T01:01:06;2.40;;;2.20;;
13927;SDS011;7036;50.834;4.718;2023-08-17T01:03:33;2.30;;;2.20;;
13927;SDS011;7036;50.834;4.718;2023-08-17T01:06:00;2.70;;;2.50;;
13927;SDS011;7036;50.834;4.718;2023-08-17T01:08:27;2.47;;;2.27;;
13927;SDS011;7036;50.834;4.718;2023-08-17T01:10:59;3.70;;;2.30;;
13927;SDS011;7036;50.834;4.718;2023-08-17T01:13:44;2.77;;;2.57;;
13927;SDS011;7036;50.834;4.718;2023-08-17T01:16:12;2.30;;;2.13;;
13927;SDS011;7036;50.834;4.718;2023-08-17T01:18:38;2.77;;;2.30;;
13927;SDS011;7036;50.834;4.718;2023-08-17T01:21:05;2.90;;;2.70;;
13927;SDS011;7036;50.834;4.718;2023-08-17T01:23:33;2.60;;;2.40;;
13927;SDS011;7036;50.834;4.718;2023-08-17T01:25:59;2.53;;;2.33;;
13927;SDS011;7036;50.834;4.718;2023-08-17T01:28:26;3.03;;;2.43;;
13927;SDS011;7036;50.834;4.718;2023-08-17T01:33:25;2.57;;;2.37;;
13927;SDS011;7036;50.834;4.718;2023-08-17T01:35:54;2.80;;;2.43;;
13927;SDS011;7036;50.834;4.718;2023-08-17T01:38:29;2.30;;;2.10;;
13927;SDS011;7036;50.834;4.718;2023-08-17T01:40:56;2.90;;;2.57;;
13927;SDS011;7036;50.834;4.718;2023-08-17T01:43:23;2.50;;;2.23;;
13927;SDS011;7036;50.834;4.718;2023-08-17T01:45:50;2.47;;;2.20;;
13927;SDS011;7036;50.834;4.718;2023-08-17T01:48:17;2.40;;;2.20;;
13927;SDS011;7036;50.834;4.718;2023-08-17T01:50:44;2.57;;;2.37;;
13927;SDS011;7036;50.834;4.718;2023-08-17T01:53:11;2.93;;;2.50;;
13927;SDS011;7036;50.834;4.718;2023-08-17T01:55:38;2.30;;;2.10;;
13927;SDS011;7036;50.834;4.718;2023-08-17T01:58:04;2.70;;;2.23;;
13927;SDS011;7036;50.834;4.718;2023-08-17T02:00:31;2.63;;;2.43;;
13927;SDS011;7036;50.834;4.718;2023-08-17T02:02:58;2.13;;;2.03;;
13927;SDS011;7036;50.834;4.718;2023-08-17T02:05:25;2.67;;;2.47;;
13927;SDS011;7036;50.834;4.718;2023-08-17T02:07:52;2.50;;;2.30;;
13927;SDS011;7036;50.834;4.718;2023-08-17T02:10:22;2.80;;;2.27;;
13927;SDS011;7036;50.834;4.718;2023-08-17T02:12:47;2.30;;;2.10;;
13927;SDS011;7036;50.834;4.718;2023-08-17T02:15:14;2.97;;;2.57;;
13927;SDS011;7036;50.834;4.718;2023-08-17T02:17:40;2.93;;;2.07;;
13927;SDS011;7036;50.834;4.718;2023-08-17T02:20:08;2.47;;;2.30;;
13927;SDS011;7036;50.834;4.718;2023-08-17T02:22:35;2.60;;;2.40;;
13927;SDS011;7036;50.834;4.718;2023-08-17T02:25:02;2.50;;;2.30;;
13927;SDS011;7036;50.834;4.718;2023-08-17T02:27:29;2.67;;;2.33;;
13927;SDS011;7036;50.834;4.718;2023-08-17T02:29:56;3.03;;;2.23;;
13927;SDS011;7036;50.834;4.718;2023-08-17T02:32:23;2.70;;;2.50;;
13927;SDS011;7036;50.834;4.718;2023-08-17T02:34:49;2.33;;;2.13;;
13927;SDS011;7036;50.834;4.718;2023-08-17T02:37:16;2.80;;;2.43;;
13927;SDS011;7036;50.834;4.718;2023-08-17T02:39:43;2.33;;;2.13;;
13927;SDS011;7036;50.834;4.718;2023-08-17T02:42:10;2.70;;;2.30;;
13927;SDS011;7036;50.834;4.718;2023-08-17T02:44:37;2.23;;;2.03;;
13927;SDS011;7036;50.834;4.718;2023-08-17T02:47:04;2.03;;;1.80;;
13927;SDS011;7036;50.834;4.718;2023-08-17T02:49:32;2.77;;;2.20;;
13927;SDS011;7036;50.834;4.718;2023-08-17T02:51:59;2.37;;;2.17;;
13927;SDS011;7036;50.834;4.718;2023-08-17T02:54:26;2.13;;;2.00;;
13927;SDS011;7036;50.834;4.718;2023-08-17T02:56:53;2.20;;;2.00;;
13927;SDS011;7036;50.834;4.718;2023-08-17T02:59:20;2.63;;;2.43;;
13927;SDS011;7036;50.834;4.718;2023-08-17T03:01:46;3.50;;;2.33;;
13927;SDS011;7036;50.834;4.718;2023-08-17T03:04:13;1.87;;;1.77;;
13927;SDS011;7036;50.834;4.718;2023-08-17T03:06:40;2.23;;;2.07;;
13927;SDS011;7036;50.834;4.718;2023-08-17T03:09:07;2.43;;;2.10;;
13927;SDS011;7036;50.834;4.718;2023-08-17T03:11:34;1.87;;;1.77;;
13927;SDS011;7036;50.834;4.718;2023-08-17T03:14:01;2.13;;;1.93;;
13927;SDS011;7036;50.834;4.718;2023-08-17T03:16:28;2.10;;;1.90;;
13927;SDS011;7036;50.834;4.718;2023-08-17T03:18:55;2.03;;;1.87;;
13927;SDS011;7036;50.834;4.718;2023-08-17T03:21:22;2.60;;;2.20;;
13927;SDS011;7036;50.834;4.718;2023-08-17T03:23:49;2.27;;;2.07;;
13927;SDS011;7036;50.834;4.718;2023-08-17T03:26:16;2.60;;;2.40;;
13927;SDS011;7036;50.834;4.718;2023-08-17T03:28:43;2.20;;;2.00;;
13927;SDS011;7036;50.834;4.718;2023-08-17T03:31:10;2.53;;;2.33;;
13927;SDS011;7036;50.834;4.718;2023-08-17T03:33:37;2.73;;;2.07;;
13927;SDS011;7036;50.834;4.718;2023-08-17T03:36:04;2.30;;;2.10;;
13927;SDS011;7036;50.834;4.718;2023-08-17T03:38:31;2.40;;;2.20;;
13927;SDS011;7036;50.834;4.718;2023-08-17T03:40:57;2.63;;;2.10;;
13927;SDS011;7036;50.834;4.718;2023-08-17T03:43:24;2.90;;;2.27;;
13927;SDS011;7036;50.834;4.718;2023-08-17T03:45:51;2.50;;;2.30;;
13927;SDS011;7036;50.834;4.718;2023-08-17T03:48:18;1.90;;;1.80;;
13927;SDS011;7036;50.834;4.718;2023-08-17T03:50:45;2.50;;;2.30;;
13927;SDS011;7036;50.834;4.718;2023-08-17T03:53:12;1.93;;;1.73;;
13927;SDS011;7036;50.834;4.718;2023-08-17T03:55:42;2.57;;;2.03;;
13927;SDS011;7036;50.834;4.718;2023-08-17T03:58:06;1.90;;;1.80;;
13927;SDS011;7036;50.834;4.718;2023-08-17T04:00:33;2.20;;;1.97;;
13927;SDS011;7036;50.834;4.718;2023-08-17T04:03:00;2.37;;;2.17;;
13927;SDS011;7036;50.834;4.718;2023-08-17T04:05:27;3.27;;;2.20;;
13927;SDS011;7036;50.834;4.718;2023-08-17T04:07:53;1.97;;;1.87;;
13927;SDS011;7036;50.834;4.718;2023-08-17T04:10:20;1.87;;;1.77;;
13927;SDS011;7036;50.834;4.718;2023-08-17T04:12:48;2.30;;;1.97;;
13927;SDS011;7036;50.834;4.718;2023-08-17T04:15:15;3.43;;;2.17;;
13927;SDS011;7036;50.834;4.718;2023-08-17T04:17:42;2.07;;;1.87;;
13927;SDS011;7036;50.834;4.718;2023-08-17T04:20:09;3.10;;;1.80;;
13927;SDS011;7036;50.834;4.718;2023-08-17T04:22:36;1.93;;;1.83;;
13927;SDS011;7036;50.834;4.718;2023-08-17T04:25:02;2.70;;;2.07;;
13927;SDS011;7036;50.834;4.718;2023-08-17T04:27:29;2.40;;;2.20;;
13927;SDS011;7036;50.834;4.718;2023-08-17T04:29:56;2.10;;;1.90;;
13927;SDS011;7036;50.834;4.718;2023-08-17T04:32:23;2.33;;;2.13;;
13927;SDS011;7036;50.834;4.718;2023-08-17T04:34:50;2.10;;;2.00;;
13927;SDS011;7036;50.834;4.718;2023-08-17T04:37:17;2.30;;;2.10;;
13927;SDS011;7036;50.834;4.718;2023-08-17T04:39:44;1.90;;;1.80;;
13927;SDS011;7036;50.834;4.718;2023-08-17T04:42:11;1.90;;;1.80;;
13927;SDS011;7036;50.834;4.718;2023-08-17T04:44:39;2.73;;;2.07;;
13927;SDS011;7036;50.834;4.718;2023-08-17T04:47:05;2.20;;;2.00;;
13927;SDS011;7036;50.834;4.718;2023-08-17T04:49:32;2.07;;;1.97;;
13927;SDS011;7036;50.834;4.718;2023-08-17T04:51:59;2.20;;;2.00;;
13927;SDS011;7036;50.834;4.718;2023-08-17T04:54:26;2.10;;;2.00;;
13927;SDS011;7036;50.834;4.718;2023-08-17T04:56:53;2.87;;;1.80;;
13927;SDS011;7036;50.834;4.718;2023-08-17T04:59:20;1.93;;;1.70;;
13927;SDS011;7036;50.834;4.718;2023-08-17T05:01:47;2.73;;;1.90;;
13927;SDS011;7036;50.834;4.718;2023-08-17T05:04:14;1.90;;;1.80;;
13927;SDS011;7036;50.834;4.718;2023-08-17T05:06:41;2.47;;;1.97;;
13927;SDS011;7036;50.834;4.718;2023-08-17T05:09:08;1.87;;;1.77;;
13927;SDS011;7036;50.834;4.718;2023-08-17T05:11:35;2.87;;;2.00;;
13927;SDS011;7036;50.834;4.718;2023-08-17T05:14:02;2.27;;;2.07;;
13927;SDS011;7036;50.834;4.718;2023-08-17T05:16:29;2.13;;;1.83;;
13927;SDS011;7036;50.834;4.718;2023-08-17T05:18:56;2.13;;;2.03;;
13927;SDS011;7036;50.834;4.718;2023-08-17T05:21:23;2.27;;;2.07;;
13927;SDS011;7036;50.834;4.718;2023-08-17T05:23:49;2.40;;;2.13;;
13927;SDS011;7036;50.834;4.718;2023-08-17T05:26:16;2.10;;;1.90;;
13927;SDS011;7036;50.834;4.718;2023-08-17T05:28:43;1.93;;;1.70;;
13927;SDS011;7036;50.834;4.718;2023-08-17T05:31:10;1.80;;;1.70;;
13927;SDS011;7036;50.834;4.718;2023-08-17T05:33:37;2.23;;;1.80;;
13927;SDS011;7036;50.834;4.718;2023-08-17T05:36:04;1.93;;;1.73;;
13927;SDS011;7036;50.834;4.718;2023-08-17T05:38:31;1.80;;;1.70;;
13927;SDS011;7036;50.834;4.718;2023-08-17T05:40:58;1.83;;;1.73;;
13927;SDS011;7036;50.834;4.718;2023-08-17T05:43:25;1.77;;;1.67;;
13927;SDS011;7036;50.834;4.718;2023-08-17T05:45:53;2.23;;;2.03;;
13927;SDS011;7036;50.834;4.718;2023-08-17T05:48:20;2.60;;;2.03;;
13927;SDS011;7036;50.834;4.718;2023-08-17T05:50:47;2.10;;;1.90;;
13927;SDS011;7036;50.834;4.718;2023-08-17T05:53:15;2.10;;;2.00;;
13927;SDS011;7036;50.834;4.718;2023-08-17T05:55:41;2.30;;;2.10;;
13927;SDS011;7036;50.834;4.718;2023-08-17T05:58:08;1.70;;;1.60;;
13927;SDS011;7036;50.834;4.718;2023-08-17T06:00:36;2.00;;;1.90;;
13927;SDS011;7036;50.834;4.718;2023-08-17T06:03:03;3.13;;;1.60;;
13927;SDS011;7036;50.834;4.718;2023-08-17T06:05:30;1.70;;;1.60;;
13927;SDS011;7036;50.834;4.718;2023-08-17T06:07:57;3.93;;;2.20;;
13927;SDS011;7036;50.834;4.718;2023-08-17T06:10:24;7.27;;;2.53;;
13927;SDS011;7036;50.834;4.718;2023-08-17T06:12:54;6.47;;;2.47;;
13927;SDS011;7036;50.834;4.718;2023-08-17T06:15:22;2.33;;;2.10;;
13927;SDS011;7036;50.834;4.718;2023-08-17T06:17:48;3.00;;;2.20;;
13927;SDS011;7036;50.834;4.718;2023-08-17T06:20:15;3.73;;;2.60;;
13927;SDS011;7036;50.834;4.718;2023-08-17T06:22:42;4.90;;;2.77;;
13927;SDS011;7036;50.834;4.718;2023-08-17T06:25:09;6.43;;;2.57;;
13927;SDS011;7036;50.834;4.718;2023-08-17T06:27:36;4.23;;;2.77;;
13927;SDS011;7036;50.834;4.718;2023-08-17T06:30:03;5.83;;;3.00;;
13927;SDS011;7036;50.834;4.718;2023-08-17T06:32:30;3.97;;;2.77;;
13927;SDS011;7036;50.834;4.718;2023-08-17T06:34:57;3.00;;;2.70;;
13927;SDS011;7036;50.834;4.718;2023-08-17T06:37:24;3.77;;;3.43;;
13927;SDS011;7036;50.834;4.718;2023-08-17T06:39:50;2.87;;;2.53;;
13927;SDS011;7036;50.834;4.718;2023-08-17T06:42:17;7.70;;;3.53;;
13927;SDS011;7036;50.834;4.718;2023-08-17T06:44:44;7.60;;;3.30;;
13927;SDS011;7036;50.834;4.718;2023-08-17T06:47:11;6.13;;;3.40;;
13927;SDS011;7036;50.834;4.718;2023-08-17T06:49:38;6.10;;;3.37;;
13927;SDS011;7036;50.834;4.718;2023-08-17T06:52:05;5.17;;;3.53;;
13927;SDS011;7036;50.834;4.718;2023-08-17T06:54:32;4.80;;;3.90;;
13927;SDS011;7036;50.834;4.718;2023-08-17T06:56:59;4.73;;;3.47;;
13927;SDS011;7036;50.834;4.718;2023-08-17T06:59:26;4.80;;;3.17;;
13927;SDS011;7036;50.834;4.718;2023-08-17T07:01:53;6.13;;;3.70;;
13927;SDS011;7036;50.834;4.718;2023-08-17T07:04:20;7.50;;;3.43;;
13927;SDS011;7036;50.834;4.718;2023-08-17T07:06:47;6.70;;;3.53;;
13927;SDS011;7036;50.834;4.718;2023-08-17T07:09:14;6.93;;;3.70;;
13927;SDS011;7036;50.834;4.718;2023-08-17T07:11:41;4.60;;;3.77;;
13927;SDS011;7036;50.834;4.718;2023-08-17T07:14:08;5.90;;;3.20;;
13927;SDS011;7036;50.834;4.718;2023-08-17T07:16:35;4.07;;;3.13;;
13927;SDS011;7036;50.834;4.718;2023-08-17T07:19:02;4.80;;;3.10;;
13927;SDS011;7036;50.834;4.718;2023-08-17T07:21:29;4.57;;;3.37;;
13927;SDS011;7036;50.834;4.718;2023-08-17T07:23:55;3.50;;;3.20;;
13927;SDS011;7036;50.834;4.718;2023-08-17T07:26:23;5.00;;;3.83;;
13927;SDS011;7036;50.834;4.718;2023-08-17T07:28:50;5.03;;;3.20;;
13927;SDS011;7036;50.834;4.718;2023-08-17T07:31:16;4.40;;;3.10;;
13927;SDS011;7036;50.834;4.718;2023-08-17T07:33:43;9.13;;;3.87;;
13927;SDS011;7036;50.834;4.718;2023-08-17T07:36:11;9.43;;;4.10;;
13927;SDS011;7036;50.834;4.718;2023-08-17T07:38:38;8.03;;;3.87;;
13927;SDS011;7036;50.834;4.718;2023-08-17T07:41:06;5.67;;;3.60;;
13927;SDS011;7036;50.834;4.718;2023-08-17T07:43:34;5.20;;;4.03;;
13927;SDS011;7036;50.834;4.718;2023-08-17T07:46:01;8.17;;;3.73;;
13927;SDS011;7036;50.834;4.718;2023-08-17T07:48:28;8.70;;;3.87;;
13927;SDS011;7036;50.834;4.718;2023-08-17T07:50:55;5.20;;;3.30;;
13927;SDS011;7036;50.834;4.718;2023-08-17T07:53:24;7.87;;;3.67;;
13927;SDS011;7036;50.834;4.718;2023-08-17T07:55:51;7.53;;;3.87;;
13927;SDS011;7036;50.834;4.718;2023-08-17T07:58:19;6.47;;;3.80;;
13927;SDS011;7036;50.834;4.718;2023-08-17T08:00:47;6.37;;;4.00;;
13927;SDS011;7036;50.834;4.718;2023-08-17T08:03:14;6.13;;;3.87;;
13927;SDS011;7036;50.834;4.718;2023-08-17T08:05:40;5.53;;;3.63;;
13927;SDS011;7036;50.834;4.718;2023-08-17T08:08:07;4.03;;;3.43;;
13927;SDS011;7036;50.834;4.718;2023-08-17T08:10:34;4.10;;;3.70;;
13927;SDS011;7036;50.834;4.718;2023-08-17T08:13:01;4.30;;;3.90;;
13927;SDS011;7036;50.834;4.718;2023-08-17T08:15:28;6.93;;;3.60;;
13927;SDS011;7036;50.834;4.718;2023-08-17T08:17:55;7.00;;;4.37;;
13927;SDS011;7036;50.834;4.718;2023-08-17T08:20:22;7.80;;;4.90;;
13927;SDS011;7036;50.834;4.718;2023-08-17T08:22:49;8.03;;;4.90;;
13927;SDS011;7036;50.834;4.718;2023-08-17T08:25:16;8.57;;;5.00;;
13927;SDS011;7036;50.834;4.718;2023-08-17T08:27:43;6.30;;;4.87;;
13927;SDS011;7036;50.834;4.718;2023-08-17T08:30:10;7.20;;;6.10;;
13927;SDS011;7036;50.834;4.718;2023-08-17T08:32:37;11.63;;;5.97;;
13927;SDS011;7036;50.834;4.718;2023-08-17T08:35:04;8.53;;;6.27;;
13927;SDS011;7036;50.834;4.718;2023-08-17T08:37:31;9.63;;;6.10;;
13927;SDS011;7036;50.834;4.718;2023-08-17T08:39:58;15.23;;;7.10;;
13927;SDS011;7036;50.834;4.718;2023-08-17T08:42:25;10.13;;;7.10;;
13927;SDS011;7036;50.834;4.718;2023-08-17T08:44:52;17.03;;;7.33;;
13927;SDS011;7036;50.834;4.718;2023-08-17T08:47:19;13.63;;;7.10;;
13927;SDS011;7036;50.834;4.718;2023-08-17T08:50:02;10.27;;;7.33;;
13927;SDS011;7036;50.834;4.718;2023-08-17T08:52:40;11.73;;;6.40;;
13927;SDS011;7036;50.834;4.718;2023-08-17T08:54:54;14.07;;;7.37;;
13927;SDS011;7036;50.834;4.718;2023-08-17T08:57:21;10.70;;;6.63;;
13927;SDS011;7036;50.834;4.718;2023-08-17T08:59:48;13.80;;;8.20;;
13927;SDS011;7036;50.834;4.718;2023-08-17T09:02:15;12.93;;;7.33;;
13927;SDS011;7036;50.834;4.718;2023-08-17T09:04:43;12.33;;;7.10;;
13927;SDS011;7036;50.834;4.718;2023-08-17T09:07:09;13.57;;;7.67;;
13927;SDS011;7036;50.834;4.718;2023-08-17T09:09:36;13.87;;;7.50;;
13927;SDS011;7036;50.834;4.718;2023-08-17T09:12:03;10.27;;;7.47;;
13927;SDS011;7036;50.834;4.718;2023-08-17T09:14:30;16.37;;;8.43;;
13927;SDS011;7036;50.834;4.718;2023-08-17T09:16:57;12.63;;;7.20;;
13927;SDS011;7036;50.834;4.718;2023-08-17T09:19:24;11.23;;;8.17;;
13927;SDS011;7036;50.834;4.718;2023-08-17T09:21:50;13.90;;;7.50;;
13927;SDS011;7036;50.834;4.718;2023-08-17T09:24:17;11.57;;;7.87;;
13927;SDS011;7036;50.834;4.718;2023-08-17T09:26:44;13.10;;;8.13;;
13927;SDS011;7036;50.834;4.718;2023-08-17T09:29:18;14.43;;;9.40;;
13927;SDS011;7036;50.834;4.718;2023-08-17T09:31:44;16.73;;;9.33;;
13927;SDS011;7036;50.834;4.718;2023-08-17T09:34:14;11.23;;;8.37;;
13927;SDS011;7036;50.834;4.718;2023-08-17T09:36:38;14.40;;;8.97;;
13927;SDS011;7036;50.834;4.718;2023-08-17T09:39:05;13.47;;;8.83;;
13927;SDS011;7036;50.834;4.718;2023-08-17T09:41:38;13.27;;;9.07;;
13927;SDS011;7036;50.834;4.718;2023-08-17T09:44:05;13.23;;;8.77;;
13927;SDS011;7036;50.834;4.718;2023-08-17T09:46:32;14.03;;;8.80;;
13927;SDS011;7036;50.834;4.718;2023-08-17T09:49:01;11.33;;;9.60;;
13927;SDS011;7036;50.834;4.718;2023-08-17T09:51:26;11.47;;;8.87;;
13927;SDS011;7036;50.834;4.718;2023-08-17T09:53:54;14.60;;;9.83;;
13927;SDS011;7036;50.834;4.718;2023-08-17T09:56:23;15.03;;;10.63;;
13927;SDS011;7036;50.834;4.718;2023-08-17T09:58:50;13.60;;;10.77;;
13927;SDS011;7036;50.834;4.718;2023-08-17T10:01:17;17.20;;;10.03;;
13927;SDS011;7036;50.834;4.718;2023-08-17T10:03:44;16.00;;;10.33;;
13927;SDS011;7036;50.834;4.718;2023-08-17T10:06:15;12.13;;;9.90;;
13927;SDS011;7036;50.834;4.718;2023-08-17T10:08:47;15.37;;;10.90;;
13927;SDS011;7036;50.834;4.718;2023-08-17T10:11:10;14.60;;;9.43;;
13927;SDS011;7036;50.834;4.718;2023-08-17T10:13:48;10.20;;;8.57;;
13927;SDS011;7036;50.834;4.718;2023-08-17T10:16:20;13.23;;;9.03;;
13927;SDS011;7036;50.834;4.718;2023-08-17T10:18:58;15.10;;;9.33;;
13927;SDS011;7036;50.834;4.718;2023-08-17T10:21:23;13.47;;;9.57;;
13927;SDS011;7036;50.834;4.718;2023-08-17T10:23:55;13.10;;;9.23;;
13927;SDS011;7036;50.834;4.718;2023-08-17T10:26:24;14.93;;;9.10;;
13927;SDS011;7036;50.834;4.718;2023-08-17T10:28:51;13.23;;;10.10;;
13927;SDS011;7036;50.834;4.718;2023-08-17T10:31:18;9.53;;;8.20;;
13927;SDS011;7036;50.834;4.718;2023-08-17T10:33:45;11.37;;;8.87;;
13927;SDS011;7036;50.834;4.718;2023-08-17T10:36:12;11.60;;;8.20;;
13927;SDS011;7036;50.834;4.718;2023-08-17T10:38:39;10.40;;;8.60;;
13927;SDS011;7036;50.834;4.718;2023-08-17T10:41:13;10.90;;;7.90;;
13927;SDS011;7036;50.834;4.718;2023-08-17T10:43:54;10.97;;;8.30;;
13927;SDS011;7036;50.834;4.718;2023-08-17T10:46:20;9.53;;;7.90;;
13927;SDS011;7036;50.834;4.718;2023-08-17T10:48:47;13.40;;;8.27;;
13927;SDS011;7036;50.834;4.718;2023-08-17T10:51:14;11.47;;;8.60;;
13927;SDS011;7036;50.834;4.718;2023-08-17T10:53:42;11.67;;;8.20;;
13927;SDS011;7036;50.834;4.718;2023-08-17T10:56:12;13.47;;;8.83;;
13927;SDS011;7036;50.834;4.718;2023-08-17T10:58:39;11.00;;;7.60;;
13927;SDS011;7036;50.834;4.718;2023-08-17T11:01:05;9.87;;;7.73;;
13927;SDS011;7036;50.834;4.718;2023-08-17T11:03:33;9.30;;;7.77;;
13927;SDS011;7036;50.834;4.718;2023-08-17T11:06:13;12.87;;;8.33;;
13927;SDS011;7036;50.834;4.718;2023-08-17T11:08:50;10.20;;;7.87;;
13927;SDS011;7036;50.834;4.718;2023-08-17T11:11:09;10.63;;;7.97;;
13927;SDS011;7036;50.834;4.718;2023-08-17T11:13:37;10.07;;;9.03;;
13927;SDS011;7036;50.834;4.718;2023-08-17T11:16:03;12.20;;;10.33;;
13927;SDS011;7036;50.834;4.718;2023-08-17T11:18:30;10.70;;;9.60;;
13927;SDS011;7036;50.834;4.718;2023-08-17T11:21:00;10.77;;;9.67;;
13927;SDS011;7036;50.834;4.718;2023-08-17T11:23:28;13.63;;;11.43;;
13927;SDS011;7036;50.834;4.718;2023-08-17T11:25:53;11.43;;;10.43;;
13927;SDS011;7036;50.834;4.718;2023-08-17T11:28:21;15.10;;;11.83;;
13927;SDS011;7036;50.834;4.718;2023-08-17T11:30:56;16.03;;;11.87;;
13927;SDS011;7036;50.834;4.718;2023-08-17T11:33:23;16.27;;;12.40;;
13927;SDS011;7036;50.834;4.718;2023-08-17T11:35:50;13.80;;;12.40;;
13927;SDS011;7036;50.834;4.718;2023-08-17T11:38:17;12.97;;;11.80;;
13927;SDS011;7036;50.834;4.718;2023-08-17T11:40:44;13.83;;;12.27;;
13927;SDS011;7036;50.834;4.718;2023-08-17T11:43:11;13.27;;;11.90;;
13927;SDS011;7036;50.834;4.718;2023-08-17T11:45:38;13.10;;;11.90;;
13927;SDS011;7036;50.834;4.718;2023-08-17T11:48:05;13.13;;;11.77;;
13927;SDS011;7036;50.834;4.718;2023-08-17T11:50:32;12.40;;;11.27;;
13927;SDS011;7036;50.834;4.718;2023-08-17T11:52:59;14.37;;;12.90;;
13927;SDS011;7036;50.834;4.718;2023-08-17T11:55:26;13.17;;;11.87;;
13927;SDS011;7036;50.834;4.718;2023-08-17T11:57:53;13.43;;;12.07;;
13927;SDS011;7036;50.834;4.718;2023-08-17T12:00:20;15.10;;;12.33;;
13927;SDS011;7036;50.834;4.718;2023-08-17T12:02:49;13.27;;;11.73;;
13927;SDS011;7036;50.834;4.718;2023-08-17T12:05:18;13.87;;;12.50;;
13927;SDS011;7036;50.834;4.718;2023-08-17T12:07:45;14.80;;;12.23;;
13927;SDS011;7036;50.834;4.718;2023-08-17T12:10:12;13.63;;;12.23;;
13927;SDS011;7036;50.834;4.718;2023-08-17T12:12:39;14.10;;;11.43;;
13927;SDS011;7036;50.834;4.718;2023-08-17T12:15:06;12.37;;;11.17;;
13927;SDS011;7036;50.834;4.718;2023-08-17T12:17:33;12.97;;;11.67;;
13927;SDS011;7036;50.834;4.718;2023-08-17T12:19:59;14.23;;;11.13;;
13927;SDS011;7036;50.834;4.718;2023-08-17T12:22:26;13.47;;;10.40;;
13927;SDS011;7036;50.834;4.718;2023-08-17T12:24:53;11.83;;;10.47;;
13927;SDS011;7036;50.834;4.718;2023-08-17T12:27:23;14.85;;;10.88;;
13927;SDS011;7036;50.834;4.718;2023-08-17T12:29:51;11.30;;;10.30;;
13927;SDS011;7036;50.834;4.718;2023-08-17T12:32:18;12.20;;;10.90;;
13927;SDS011;7036;50.834;4.718;2023-08-17T12:34:44;11.17;;;10.10;;
13927;SDS011;7036;50.834;4.718;2023-08-17T12:37:11;11.83;;;10.63;;
13927;SDS011;7036;50.834;4.718;2023-08-17T12:39:40;12.88;;;11.15;;
13927;SDS011;7036;50.834;4.718;2023-08-17T12:42:07;12.83;;;10.93;;
13927;SDS011;7036;50.834;4.718;2023-08-17T12:44:34;12.10;;;10.80;;
13927;SDS011;7036;50.834;4.718;2023-08-17T12:47:01;15.90;;;10.70;;
13927;SDS011;7036;50.834;4.718;2023-08-17T12:49:28;12.17;;;10.87;;
13927;SDS011;7036;50.834;4.718;2023-08-17T12:51:55;12.90;;;10.88;;
13927;SDS011;7036;50.834;4.718;2023-08-17T12:54:22;11.37;;;10.17;;
13927;SDS011;7036;50.834;4.718;2023-08-17T12:56:49;11.73;;;10.53;;
13927;SDS011;7036;50.834;4.718;2023-08-17T12:59:16;11.90;;;10.33;;
13927;SDS011;7036;50.834;4.718;2023-08-17T13:01:43;13.10;;;9.87;;
13927;SDS011;7036;50.834;4.718;2023-08-17T13:04:10;13.87;;;10.50;;
13927;SDS011;7036;50.834;4.718;2023-08-17T13:06:37;13.30;;;10.33;;
13927;SDS011;7036;50.834;4.718;2023-08-17T13:09:04;10.97;;;9.97;;
13927;SDS011;7036;50.834;4.718;2023-08-17T13:11:31;16.00;;;10.67;;
13927;SDS011;7036;50.834;4.718;2023-08-17T13:14:00;11.43;;;10.23;;
13927;SDS011;7036;50.834;4.718;2023-08-17T13:16:27;14.10;;;11.03;;
13927;SDS011;7036;50.834;4.718;2023-08-17T13:18:54;14.50;;;10.40;;
13927;SDS011;7036;50.834;4.718;2023-08-17T13:21:21;10.97;;;9.70;;
13927;SDS011;7036;50.834;4.718;2023-08-17T13:23:48;11.97;;;10.77;;
13927;SDS011;7036;50.834;4.718;2023-08-17T13:26:15;12.43;;;9.93;;
13927;SDS011;7036;50.834;4.718;2023-08-17T13:28:42;9.83;;;8.93;;
13927;SDS011;7036;50.834;4.718;2023-08-17T13:31:09;10.53;;;9.57;;
13927;SDS011;7036;50.834;4.718;2023-08-17T13:33:36;11.17;;;10.07;;
13927;SDS011;7036;50.834;4.718;2023-08-17T13:36:04;11.03;;;9.83;;
13927;SDS011;7036;50.834;4.718;2023-08-17T13:38:30;10.23;;;9.23;;
13927;SDS011;7036;50.834;4.718;2023-08-17T13:40:57;11.40;;;9.53;;
13927;SDS011;7036;50.834;4.718;2023-08-17T13:43:24;10.23;;;9.03;;
13927;SDS011;7036;50.834;4.718;2023-08-17T13:45:52;11.17;;;9.97;;
13927;SDS011;7036;50.834;4.718;2023-08-17T13:48:19;10.83;;;9.77;;
13927;SDS011;7036;50.834;4.718;2023-08-17T13:50:45;10.80;;;9.70;;
13927;SDS011;7036;50.834;4.718;2023-08-17T13:53:12;10.43;;;9.33;;
13927;SDS011;7036;50.834;4.718;2023-08-17T13:55:39;10.17;;;9.17;;
13927;SDS011;7036;50.834;4.718;2023-08-17T13:58:06;10.57;;;9.00;;
13927;SDS011;7036;50.834;4.718;2023-08-17T14:00:33;9.83;;;8.83;;
13927;SDS011;7036;50.834;4.718;2023-08-17T14:03:00;13.23;;;8.40;;
13927;SDS011;7036;50.834;4.718;2023-08-17T14:05:27;10.63;;;8.60;;
13927;SDS011;7036;50.834;4.718;2023-08-17T14:07:54;11.33;;;8.73;;
13927;SDS011;7036;50.834;4.718;2023-08-17T14:10:21;11.60;;;8.83;;
13927;SDS011;7036;50.834;4.718;2023-08-17T14:12:48;9.37;;;8.23;;
13927;SDS011;7036;50.834;4.718;2023-08-17T14:15:15;10.57;;;9.47;;
13927;SDS011;7036;50.834;4.718;2023-08-17T14:17:42;10.90;;;8.43;;
13927;SDS011;7036;50.834;4.718;2023-08-17T14:20:09;11.80;;;8.20;;
13927;SDS011;7036;50.834;4.718;2023-08-17T14:22:36;10.77;;;8.13;;
13927;SDS011;7036;50.834;4.718;2023-08-17T14:25:03;9.00;;;8.10;;
13927;SDS011;7036;50.834;4.718;2023-08-17T14:27:30;8.40;;;7.60;;
13927;SDS011;7036;50.834;4.718;2023-08-17T14:29:56;9.00;;;8.20;;
13927;SDS011;7036;50.834;4.718;2023-08-17T14:32:23;10.70;;;7.57;;
13927;SDS011;7036;50.834;4.718;2023-08-17T14:34:50;9.57;;;8.57;;
13927;SDS011;7036;50.834;4.718;2023-08-17T14:37:17;11.07;;;9.50;;
13927;SDS011;7036;50.834;4.718;2023-08-17T14:39:44;10.93;;;9.83;;
13927;SDS011;7036;50.834;4.718;2023-08-17T14:42:11;13.83;;;11.33;;
13927;SDS011;7036;50.834;4.718;2023-08-17T14:44:39;13.57;;;11.17;;
13927;SDS011;7036;50.834;4.718;2023-08-17T14:47:06;14.13;;;11.93;;
13927;SDS011;7036;50.834;4.718;2023-08-17T14:49:33;17.47;;;11.30;;
13927;SDS011;7036;50.834;4.718;2023-08-17T14:52:00;12.90;;;11.60;;
13927;SDS011;7036;50.834;4.718;2023-08-17T14:54:27;15.10;;;12.65;;
13927;SDS011;7036;50.834;4.718;2023-08-17T14:56:54;14.43;;;12.97;;